Terminal Aerodrome Forecast
Issued by NWS

Current Version | Previous Version | Graphics & Text | Print | Product List | Glossary On
Versions: 1 2 3 4 5 6 7 8 9 10 11 12 13 14 15 16 17 18 19 20 21 22 23 24 25 26
000
FTUS41 KILN 050541
TAFLUK
TAF
KLUK 050541Z 0506/0606 02003KT P6SM SCT150 BKN250
     FM050800 00000KT 2SM BR SCT100 SCT250
      TEMPO 0509/0513 1/4SM FG VV002
     FM051400 05004KT P6SM FEW050 SCT150
     FM060000 06006KT P6SM SCT050 BKN120
     FM060300 08005KT P6SM VCSH BKN050 OVC120=

USA.gov is the U.S. government's official web portal to all federal, state and local government web resources and services.